createdAt,value
2019-04-05T00:02:10.993Z,39.67
2019-04-05T00:04:44.363Z,38.50
2019-04-05T00:07:17.706Z,37.30
2019-04-05T00:09:51.112Z,35.87
2019-04-05T00:12:24.501Z,37.33
2019-04-05T00:14:57.848Z,38.30
2019-04-05T00:17:31.283Z,40.87
2019-04-05T00:20:07.588Z,40.20
2019-04-05T00:22:40.980Z,38.13
2019-04-05T00:25:14.406Z,38.00
2019-04-05T00:27:47.745Z,38.90
2019-04-05T00:30:21.236Z,39.20
2019-04-05T00:32:54.618Z,38.23
2019-04-05T00:35:28.045Z,36.33
2019-04-05T00:38:01.428Z,37.27
2019-04-05T00:40:34.797Z,39.63
2019-04-05T00:43:08.119Z,38.23
2019-04-05T00:45:41.487Z,38.23
2019-04-05T00:48:15.807Z,40.03
2019-04-05T00:50:49.255Z,35.73
2019-04-05T00:53:22.665Z,38.53
2019-04-05T00:55:56.022Z,35.47
2019-04-05T00:58:29.431Z,37.43
2019-04-05T01:01:02.887Z,35.03
2019-04-05T01:03:36.246Z,34.90
2019-04-05T01:06:09.603Z,38.33
2019-04-05T01:08:43.142Z,33.83
2019-04-05T01:11:16.615Z,37.13
2019-04-05T01:13:50.507Z,35.33
2019-04-05T01:16:23.941Z,35.83
2019-04-05T01:18:57.280Z,33.07
2019-04-05T01:21:33.832Z,33.60
2019-04-05T01:24:07.935Z,31.60
2019-04-05T01:26:42.825Z,43.27
2019-04-05T01:29:16.258Z,36.67
2019-04-05T01:31:49.684Z,35.13
2019-04-05T01:34:23.003Z,40.13
2019-04-05T01:36:56.428Z,34.77
2019-04-05T01:39:29.765Z,33.27
2019-04-05T01:42:03.198Z,40.83
2019-04-05T01:44:36.635Z,42.30
2019-04-05T01:47:10.069Z,35.20
2019-04-05T01:49:43.458Z,35.97
2019-04-05T01:52:16.899Z,36.73
2019-04-05T01:54:50.240Z,35.93
2019-04-05T01:57:23.645Z,35.70
2019-04-05T01:59:57.014Z,36.17
2019-04-05T02:02:30.389Z,36.73
2019-04-05T02:05:06.055Z,38.30
2019-04-05T02:07:39.593Z,39.53
2019-04-05T02:10:13.313Z,38.97
2019-04-05T02:12:46.803Z,35.63
2019-04-05T02:15:28.449Z,37.90
2019-04-05T02:18:01.914Z,37.67
2019-04-05T02:20:35.375Z,35.20
2019-04-05T02:23:08.770Z,36.73
2019-04-05T02:25:42.193Z,38.63
2019-04-05T02:28:15.672Z,37.70
2019-04-05T02:30:49.095Z,39.47
2019-04-05T02:33:22.484Z,39.13
2019-04-05T02:35:55.944Z,37.67
2019-04-05T02:38:29.275Z,38.20
2019-04-05T02:41:03.491Z,40.73
2019-04-05T02:43:38.589Z,40.07
2019-04-05T02:46:23.625Z,38.80
2019-04-05T02:48:47.941Z,42.57
2019-04-05T02:51:23.100Z,40.43
2019-04-05T02:53:57.889Z,45.10
2019-04-05T02:56:31.666Z,42.50
2019-04-05T02:59:05.912Z,40.23
2019-04-05T03:01:39.383Z,43.00
2019-04-05T03:04:13.265Z,41.17
2019-04-05T03:06:47.043Z,42.73
2019-04-05T03:09:20.872Z,41.30
2019-04-05T03:11:54.870Z,41.90
2019-04-05T03:14:28.587Z,43.83
2019-04-05T03:17:02.530Z,42.20
2019-04-05T03:19:37.644Z,43.53
2019-04-05T03:22:12.561Z,43.80
2019-04-05T03:24:46.664Z,42.97
2019-04-05T03:27:22.508Z,43.40
2019-04-05T03:29:56.523Z,47.40
2019-04-05T03:32:29.984Z,44.33
2019-04-05T03:35:03.852Z,42.07
2019-04-05T03:37:37.294Z,44.30
2019-04-05T03:40:10.726Z,43.67
2019-04-05T03:42:44.237Z,45.87
2019-04-05T03:45:17.555Z,43.13
2019-04-05T03:47:51.012Z,45.30
2019-04-05T03:50:24.432Z,44.70
2019-04-05T03:52:58.076Z,43.20
2019-04-05T03:55:31.665Z,42.87
2019-04-05T03:58:05.420Z,43.20
2019-04-05T04:00:39.242Z,42.47
2019-04-05T04:03:12.841Z,44.53
2019-04-05T04:05:46.235Z,43.27
2019-04-05T04:08:23.277Z,43.43
2019-04-05T04:10:55.584Z,41.57
2019-04-05T04:13:29.295Z,40.17
2019-04-05T04:16:02.706Z,41.43
2019-04-05T04:18:36.439Z,38.67
2019-04-05T04:21:15.878Z,40.60
2019-04-05T04:23:49.310Z,40.93
2019-04-05T04:26:22.776Z,40.70
2019-04-05T04:28:56.417Z,38.57
2019-04-05T04:31:29.917Z,42.37
2019-04-05T04:34:03.275Z,40.83
2019-04-05T04:36:36.597Z,41.07
2019-04-05T04:39:10.033Z,42.03
2019-04-05T04:41:43.802Z,39.57
2019-04-05T04:44:18.090Z,37.30
2019-04-05T04:46:51.807Z,40.93
2019-04-05T04:49:25.242Z,38.90
2019-04-05T04:51:58.814Z,40.67
2019-04-05T04:54:32.260Z,39.73
2019-04-05T04:57:05.982Z,38.37
2019-04-05T04:59:39.424Z,40.77
2019-04-05T05:02:13.026Z,37.83
2019-04-05T05:04:46.467Z,41.03
2019-04-05T05:07:19.852Z,40.03
2019-04-05T05:09:53.327Z,39.03
2019-04-05T05:12:26.797Z,37.47
2019-04-05T05:15:00.225Z,39.47
2019-04-05T05:17:38.836Z,38.70
2019-04-05T05:20:09.848Z,39.63
2019-04-05T05:22:43.365Z,41.33
2019-04-05T05:25:17.719Z,41.13
2019-04-05T05:27:51.259Z,39.67
2019-04-05T05:30:24.966Z,39.83
2019-04-05T05:32:58.829Z,41.17
2019-04-05T05:35:32.219Z,39.50
2019-04-05T05:38:05.959Z,40.23
2019-04-05T05:40:39.364Z,43.77
2019-04-05T05:43:12.785Z,38.80
2019-04-05T05:45:46.496Z,42.73
2019-04-05T05:48:19.930Z,42.20
2019-04-05T05:50:53.362Z,42.13
2019-04-05T05:53:26.742Z,40.80
2019-04-05T05:56:00.065Z,45.17
2019-04-05T05:58:33.482Z,44.57
2019-04-05T06:01:06.883Z,42.13
2019-04-05T06:03:40.269Z,43.60
2019-04-05T06:06:13.658Z,44.70
2019-04-05T06:08:47.151Z,47.27
2019-04-05T06:11:20.500Z,44.47
2019-04-05T06:13:53.874Z,44.97
2019-04-05T06:16:27.277Z,45.63
2019-04-05T06:19:00.751Z,49.43
2019-04-05T06:21:34.074Z,43.23
2019-04-05T06:24:07.445Z,41.70
2019-04-05T06:26:40.784Z,43.27
2019-04-05T06:29:14.244Z,43.10
2019-04-05T06:31:47.592Z,43.57
2019-04-05T06:34:21.013Z,44.70
2019-04-05T06:36:54.440Z,43.90
2019-04-05T06:39:27.803Z,43.83
2019-04-05T06:42:01.251Z,42.83
2019-04-05T06:44:34.697Z,45.30
2019-04-05T06:47:08.020Z,45.20
2019-04-05T06:49:41.427Z,44.03
2019-04-05T06:52:14.787Z,43.67
2019-04-05T06:54:48.210Z,44.90
2019-04-05T06:57:21.649Z,44.13
2019-04-05T06:59:55.002Z,41.90
2019-04-05T07:02:28.396Z,42.70
2019-04-05T07:05:01.772Z,43.43
2019-04-05T07:07:35.108Z,43.13
2019-04-05T07:10:08.693Z,42.40
2019-04-05T07:12:42.192Z,42.13
2019-04-05T07:15:15.689Z,43.77
2019-04-05T07:17:49.123Z,42.30
2019-04-05T07:20:23.866Z,43.50
2019-04-05T07:22:57.440Z,47.03
2019-04-05T07:25:30.918Z,51.50
2019-04-05T07:28:04.310Z,43.20
2019-04-05T07:30:37.677Z,45.23
2019-04-05T07:33:11.001Z,46.40
2019-04-05T07:35:44.368Z,47.23
2019-04-05T07:38:17.755Z,45.70
2019-04-05T07:40:51.227Z,47.80
2019-04-05T07:43:24.595Z,50.40
2019-04-05T07:45:57.929Z,49.27
2019-04-05T07:48:43.825Z,52.67
2019-04-05T07:51:06.451Z,49.83
2019-04-05T07:53:39.889Z,46.27
2019-04-05T07:56:13.282Z,48.83
2019-04-05T07:58:46.719Z,46.03
2019-04-05T08:01:20.136Z,48.43
2019-04-05T08:03:53.563Z,50.80
2019-04-05T08:06:27.088Z,49.27
2019-04-05T08:09:08.989Z,53.80
2019-04-05T08:11:43.890Z,49.10
2019-04-05T08:14:18.163Z,48.97
2019-04-05T08:16:51.778Z,49.57
2019-04-05T08:19:25.234Z,52.40
2019-04-05T08:21:58.601Z,50.17
2019-04-05T08:24:32.274Z,50.37
2019-04-05T08:27:05.667Z,50.53
2019-04-05T08:29:39.088Z,51.10
2019-04-05T08:32:14.838Z,52.40
2019-04-05T08:34:47.571Z,53.17
2019-04-05T08:37:21.027Z,53.00
2019-04-05T08:39:54.448Z,54.60
2019-04-05T08:42:27.836Z,53.60
2019-04-05T08:45:01.232Z,50.63
2019-04-05T08:47:34.598Z,51.40
2019-04-05T08:50:08.208Z,50.90
2019-04-05T08:52:41.522Z,52.03
2019-04-05T08:55:14.965Z,52.07
2019-04-05T08:57:48.307Z,52.27
2019-04-05T09:00:21.761Z,55.10
2019-04-05T09:02:55.305Z,52.03
2019-04-05T09:05:28.887Z,54.33
2019-04-05T09:08:02.281Z,53.53
2019-04-05T09:10:35.811Z,55.37
2019-04-05T09:13:09.224Z,55.70
2019-04-05T09:15:42.643Z,52.83
2019-04-05T09:18:15.968Z,51.90
2019-04-05T09:20:49.389Z,54.50
2019-04-05T09:23:22.731Z,51.37
2019-04-05T09:25:56.169Z,52.37
2019-04-05T09:28:29.495Z,54.10
2019-04-05T09:31:02.928Z,53.53
2019-04-05T09:33:36.248Z,55.27
2019-04-05T09:36:09.714Z,53.47
2019-04-05T09:38:43.108Z,54.57
2019-04-05T09:41:16.463Z,56.00
2019-04-05T09:43:49.823Z,54.80
2019-04-05T09:46:23.187Z,56.13
2019-04-05T09:48:56.608Z,54.67
2019-04-05T09:51:29.992Z,60.17
2019-04-05T09:54:03.467Z,60.23
2019-04-05T09:56:36.876Z,56.03
2019-04-05T09:59:10.299Z,59.33
2019-04-05T10:01:43.834Z,54.57
2019-04-05T10:04:17.265Z,55.03
2019-04-05T10:06:50.713Z,54.80
2019-04-05T10:09:24.113Z,56.43
2019-04-05T10:11:57.566Z,54.20
2019-04-05T10:14:30.981Z,55.70
2019-04-05T10:17:04.501Z,54.97
2019-04-05T10:19:49.192Z,54.53
2019-04-05T10:22:12.945Z,54.00
2019-04-05T10:24:46.276Z,56.37
2019-04-05T10:27:19.629Z,56.67
2019-04-05T10:29:53.071Z,57.33
2019-04-05T10:32:26.405Z,54.57
2019-04-05T10:34:59.826Z,57.10
2019-04-05T10:37:33.247Z,58.53
2019-04-05T10:40:07.202Z,59.13
2019-04-05T10:42:40.568Z,56.03
2019-04-05T10:45:14.398Z,54.33
2019-04-05T10:47:47.877Z,54.13
2019-04-05T10:50:21.382Z,55.27
2019-04-05T10:52:54.697Z,55.03
2019-04-05T10:55:28.102Z,53.13
2019-04-05T10:58:01.508Z,51.63
2019-04-05T11:00:34.858Z,50.97
2019-04-05T11:03:08.193Z,50.13
2019-04-05T11:05:41.547Z,49.30
2019-04-05T11:08:14.914Z,54.70
2019-04-05T11:10:48.229Z,52.87
2019-04-05T11:13:21.649Z,53.50
2019-04-05T11:15:55.069Z,56.53
2019-04-05T11:18:28.389Z,53.37
2019-04-05T11:21:01.758Z,53.17
2019-04-05T11:23:35.084Z,51.70
2019-04-05T11:26:08.458Z,54.05
2019-04-05T11:28:41.799Z,54.73
2019-04-05T11:31:15.303Z,54.20
2019-04-05T11:33:48.702Z,55.23
2019-04-05T11:36:22.161Z,56.35
2019-04-05T11:38:55.547Z,59.38
2019-04-05T11:41:29.105Z,56.73
2019-04-05T11:44:03.132Z,56.48
2019-04-05T11:46:37.247Z,58.60
2019-04-05T11:49:10.709Z,55.00
2019-04-05T11:51:44.200Z,53.57
2019-04-05T11:54:18.521Z,58.50
2019-04-05T11:56:52.029Z,59.63
2019-04-05T11:59:25.378Z,60.57
2019-04-05T12:02:03.119Z,58.33
2019-04-05T12:04:36.811Z,55.57
2019-04-05T12:07:10.248Z,56.50
2019-04-05T12:09:43.568Z,56.53
2019-04-05T12:12:17.042Z,62.53
2019-04-05T12:14:50.360Z,59.33
2019-04-05T12:17:23.844Z,57.40
2019-04-05T12:19:57.236Z,58.57
2019-04-05T12:22:34.514Z,58.13
2019-04-05T12:25:07.785Z,57.30
2019-04-05T12:27:41.125Z,57.03
2019-04-05T12:30:19.521Z,54.40
2019-04-05T12:32:52.870Z,55.85
2019-04-05T12:35:26.203Z,53.08
2019-04-05T12:37:59.639Z,58.20
2019-04-05T12:40:33.067Z,56.33
2019-04-05T12:43:06.495Z,55.30
2019-04-05T12:45:39.892Z,55.58
2019-04-05T12:48:13.690Z,56.73
2019-04-05T12:51:00.326Z,58.80
2019-04-05T12:53:24.654Z,56.07
2019-04-05T12:55:58.873Z,54.70
2019-04-05T12:58:32.833Z,54.43
2019-04-05T13:01:08.382Z,57.23
2019-04-05T13:03:41.634Z,54.10
2019-04-05T13:06:15.027Z,53.10
2019-04-05T13:08:48.396Z,51.77
2019-04-05T13:11:25.930Z,52.47
2019-04-05T13:13:57.034Z,54.13
2019-04-05T13:16:30.405Z,54.67
2019-04-05T13:19:03.806Z,55.70
2019-04-05T13:21:37.130Z,56.03
2019-04-05T13:24:12.027Z,56.77
2019-04-05T13:26:45.459Z,56.43
2019-04-05T13:29:19.655Z,56.10
2019-04-05T13:31:53.634Z,57.33
2019-04-05T13:34:27.007Z,54.03
2019-04-05T13:37:01.400Z,52.33
2019-04-05T13:39:35.388Z,55.52
2019-04-05T13:42:08.808Z,54.57
2019-04-05T13:44:42.237Z,56.25
2019-04-05T13:47:15.612Z,53.83
2019-04-05T13:49:48.977Z,56.58
2019-04-05T13:52:22.374Z,58.63
2019-04-05T13:54:55.736Z,57.07
2019-04-05T13:57:29.179Z,57.15
2019-04-05T14:00:02.612Z,56.95
2019-04-05T14:02:36.014Z,56.08
2019-04-05T14:05:09.503Z,57.27
2019-04-05T14:07:42.857Z,52.87
2019-04-05T14:10:16.292Z,52.58
2019-04-05T14:12:49.684Z,54.67
2019-04-05T14:15:23.120Z,54.25
2019-04-05T14:17:56.470Z,54.35
2019-04-05T14:20:29.921Z,53.65
2019-04-05T14:23:03.426Z,50.83
2019-04-05T14:25:36.919Z,54.57
2019-04-05T14:28:10.257Z,52.80
2019-04-05T14:30:43.621Z,52.30
2019-04-05T14:33:17.016Z,51.80
2019-04-05T14:35:50.391Z,51.02
2019-04-05T14:38:23.822Z,49.23
2019-04-05T14:40:57.150Z,53.67
2019-04-05T14:43:30.476Z,53.87
2019-04-05T14:46:03.995Z,50.78
2019-04-05T14:48:37.323Z,52.63
2019-04-05T14:51:10.822Z,53.25
2019-04-05T14:53:44.366Z,50.90
2019-04-05T14:56:18.097Z,53.35
2019-04-05T14:58:51.568Z,53.20
2019-04-05T15:01:24.955Z,53.45
2019-04-05T15:03:58.331Z,51.17
2019-04-05T15:06:31.685Z,55.38
2019-04-05T15:09:06.506Z,56.68
2019-04-05T15:11:39.900Z,56.83
2019-04-05T15:14:13.248Z,56.37
2019-04-05T15:16:46.574Z,54.27
2019-04-05T15:19:19.946Z,56.83
2019-04-05T15:22:04.863Z,58.48
2019-04-05T15:24:28.396Z,54.42
2019-04-05T15:27:01.748Z,55.95
2019-04-05T15:29:35.135Z,54.03
2019-04-05T15:32:08.536Z,54.05
2019-04-05T15:34:42.048Z,49.83
2019-04-05T15:37:16.123Z,50.47
2019-04-05T15:39:49.828Z,49.40
2019-04-05T15:42:23.213Z,52.08
2019-04-05T15:44:56.587Z,52.27
2019-04-05T15:47:31.954Z,49.27
2019-04-05T15:50:07.324Z,52.60
2019-04-05T15:52:40.645Z,53.00
2019-04-05T15:55:14.081Z,52.57
2019-04-05T15:57:47.488Z,56.23
2019-04-05T16:00:39.028Z,50.77
2019-04-05T16:03:13.376Z,52.07
2019-04-05T16:05:46.878Z,50.47
2019-04-05T16:08:20.278Z,52.73
2019-04-05T16:10:53.644Z,50.63
2019-04-05T16:13:27.050Z,46.70
2019-04-05T16:16:00.467Z,47.77
2019-04-05T16:18:33.800Z,48.13
2019-04-05T16:21:07.149Z,47.97
2019-04-05T16:23:40.493Z,45.17
2019-04-05T16:26:13.839Z,46.60
2019-04-05T16:28:47.184Z,45.20
2019-04-05T16:31:20.611Z,45.03
2019-04-05T16:33:54.045Z,47.37
2019-04-05T16:36:27.551Z,44.37
2019-04-05T16:39:02.601Z,45.43
2019-04-05T16:41:35.953Z,45.27
2019-04-05T16:44:09.378Z,46.20
2019-04-05T16:46:42.749Z,44.37
2019-04-05T16:49:16.097Z,43.20
2019-04-05T16:51:49.484Z,43.90
2019-04-05T16:54:22.804Z,43.57
2019-04-05T16:56:56.248Z,45.17
2019-04-05T16:59:29.569Z,41.90
2019-04-05T17:02:02.937Z,40.57
2019-04-05T17:04:36.311Z,41.97
2019-04-05T17:07:09.662Z,42.30
2019-04-05T17:09:42.980Z,44.73
2019-04-05T17:12:16.349Z,45.23
2019-04-05T17:14:49.735Z,41.67
2019-04-05T17:17:23.190Z,41.40
2019-04-05T17:19:56.524Z,42.83
2019-04-05T17:22:29.971Z,41.97
2019-04-05T17:25:04.543Z,43.40
2019-04-05T17:27:37.987Z,44.63
2019-04-05T17:30:11.384Z,41.17
2019-04-05T17:32:44.775Z,41.23
2019-04-05T17:35:19.580Z,42.83
2019-04-05T17:37:52.938Z,42.90
2019-04-05T17:40:26.282Z,41.23
2019-04-05T17:42:59.718Z,43.73
2019-04-05T17:45:33.038Z,42.33
2019-04-05T17:48:06.487Z,41.10
2019-04-05T17:50:39.814Z,42.10
2019-04-05T17:53:13.607Z,41.87
2019-04-05T17:55:47.169Z,40.50
2019-04-05T17:58:20.605Z,40.07
2019-04-05T18:00:54.137Z,40.03
2019-04-05T18:03:27.602Z,38.80
2019-04-05T18:06:00.961Z,40.83
2019-04-05T18:08:34.284Z,45.50
2019-04-05T18:11:07.632Z,42.60
2019-04-05T18:13:40.966Z,40.87
2019-04-05T18:16:14.415Z,41.90
2019-04-05T18:18:47.755Z,42.70
2019-04-05T18:21:21.240Z,44.03
2019-04-05T18:23:54.561Z,42.17
2019-04-05T18:26:27.926Z,41.57
2019-04-05T18:29:01.345Z,41.70
2019-04-05T18:31:34.936Z,41.13
2019-04-05T18:34:08.384Z,40.53
2019-04-05T18:36:41.781Z,37.40
2019-04-05T18:39:15.360Z,43.37
2019-04-05T18:41:48.711Z,42.20
2019-04-05T18:44:22.039Z,43.30
2019-04-05T18:46:55.448Z,43.30
2019-04-05T18:49:28.841Z,40.57
2019-04-05T18:52:02.201Z,43.30
2019-04-05T18:54:35.523Z,43.40
2019-04-05T18:57:08.892Z,40.87
2019-04-05T18:59:42.203Z,44.23
2019-04-05T19:02:15.551Z,43.17
2019-04-05T19:04:49.017Z,40.83
2019-04-05T19:07:22.521Z,45.53
2019-04-05T19:09:55.891Z,44.27
2019-04-05T19:12:29.311Z,42.93
2019-04-05T19:15:02.856Z,41.13
2019-04-05T19:17:36.187Z,39.90
2019-04-05T19:20:09.963Z,39.50
2019-04-05T19:22:43.413Z,40.47
2019-04-05T19:25:16.887Z,40.67
2019-04-05T19:27:50.259Z,43.83
2019-04-05T19:51:02.688Z,44.33
2019-04-05T19:53:36.134Z,42.00
2019-04-05T19:56:09.536Z,46.67
2019-04-05T19:58:42.973Z,45.53
2019-04-05T20:01:16.778Z,43.07
2019-04-05T20:03:50.179Z,40.63
2019-04-05T20:06:23.573Z,41.13
2019-04-05T20:08:56.941Z,43.50
2019-04-05T20:11:30.290Z,43.00
2019-04-05T20:14:03.716Z,47.80
2019-04-05T20:16:37.124Z,45.43
2019-04-05T20:19:10.490Z,44.90
2019-04-05T20:21:43.853Z,40.37
2019-04-05T20:24:17.219Z,44.20
2019-04-05T20:26:50.773Z,41.33
2019-04-05T20:29:24.239Z,42.20
2019-04-05T20:31:57.659Z,51.33
2019-04-05T20:34:31.044Z,43.10
2019-04-05T20:37:04.439Z,44.90
2019-04-05T20:39:37.920Z,44.63
2019-04-05T20:42:11.270Z,51.77
2019-04-05T20:44:44.740Z,50.37
2019-04-05T20:47:18.166Z,45.47
2019-04-05T20:49:51.585Z,48.50
2019-04-05T20:52:24.978Z,46.73
2019-04-05T20:54:58.340Z,47.97
2019-04-05T20:57:31.691Z,47.77
2019-04-05T21:00:07.478Z,45.33
2019-04-05T21:02:40.995Z,55.37
2019-04-05T21:05:24.585Z,47.60
2019-04-05T21:07:49.477Z,46.50
2019-04-05T21:10:22.876Z,45.57
2019-04-05T21:12:56.267Z,49.90
2019-04-05T21:15:29.643Z,47.33
2019-04-05T21:18:02.981Z,46.03
2019-04-05T21:20:36.406Z,50.17
2019-04-05T21:23:09.867Z,53.97
2019-04-05T21:25:43.341Z,48.30
2019-04-05T21:28:16.677Z,47.83
2019-04-05T21:30:50.122Z,48.90
2019-04-05T21:33:23.451Z,47.47
2019-04-05T21:35:56.806Z,48.97
2019-04-05T21:38:30.319Z,47.37
2019-04-05T21:41:03.714Z,47.77
2019-04-05T21:43:37.130Z,47.60
2019-04-05T21:46:10.847Z,53.43
2019-04-05T21:48:44.304Z,49.47
2019-04-05T21:51:17.755Z,49.77
2019-04-05T21:53:51.212Z,48.17
2019-04-05T21:56:24.714Z,49.40
2019-04-05T21:58:58.102Z,48.67
2019-04-05T22:01:31.536Z,49.80
2019-04-05T22:04:05.095Z,53.60
2019-04-05T22:06:38.533Z,50.67
2019-04-05T22:09:12.236Z,51.33
2019-04-05T22:11:45.608Z,49.97
2019-04-05T22:14:19.075Z,48.10
2019-04-05T22:16:52.527Z,50.27
2019-04-05T22:19:25.983Z,46.63
2019-04-05T22:21:59.317Z,50.60
2019-04-05T22:24:32.765Z,48.17
2019-04-05T22:27:06.134Z,49.73
2019-04-05T22:29:39.680Z,52.40
2019-04-05T22:32:13.051Z,50.10
2019-04-05T22:34:46.587Z,50.97
2019-04-05T22:37:20.095Z,47.13
2019-04-05T22:39:54.221Z,48.47
2019-04-05T22:42:27.557Z,49.17
2019-04-05T22:45:00.909Z,50.97
2019-04-05T22:47:34.511Z,46.63
2019-04-05T22:50:08.200Z,50.97
2019-04-05T22:52:41.587Z,50.63
2019-04-05T22:55:14.946Z,48.83
2019-04-05T22:57:48.268Z,51.23
2019-04-05T23:00:21.691Z,52.83
2019-04-05T23:02:56.042Z,51.47
2019-04-05T23:05:29.592Z,45.87
2019-04-05T23:08:03.102Z,43.77
2019-04-05T23:10:36.553Z,46.43
2019-04-05T23:13:10.349Z,45.03
2019-04-05T23:15:43.922Z,45.23
2019-04-05T23:18:18.070Z,54.00
2019-04-05T23:20:51.812Z,62.63
2019-04-05T23:23:25.543Z,52.30
2019-04-05T23:25:59.425Z,44.90
2019-04-05T23:28:33.117Z,48.83
2019-04-05T23:31:06.840Z,45.23
2019-04-05T23:33:40.461Z,51.23
2019-04-05T23:36:13.889Z,54.37
2019-04-05T23:38:47.495Z,49.80
2019-04-05T23:41:21.005Z,47.57
2019-04-05T23:43:54.919Z,47.20
2019-04-05T23:46:28.577Z,49.50
2019-04-05T23:49:02.128Z,49.97
2019-04-05T23:51:35.778Z,46.33
2019-04-05T23:54:11.154Z,48.00
2019-04-05T23:56:44.839Z,45.90
2019-04-05T23:59:18.357Z,48.03
